createdAt,value
2023-01-22T00:00:18.492Z,9.88
2023-01-22T00:03:20.923Z,9.80
2023-01-22T00:06:23.793Z,9.32
2023-01-22T00:09:26.102Z,9.32
2023-01-22T00:12:28.832Z,8.52
2023-01-22T00:15:31.224Z,8.88
2023-01-22T00:18:34.526Z,9.45
2023-01-22T00:21:36.711Z,9.00
2023-01-22T00:24:41.649Z,9.05
2023-01-22T00:27:43.832Z,8.80
2023-01-22T00:30:46.056Z,9.48
2023-01-22T00:33:48.365Z,9.23
2023-01-22T00:36:50.568Z,9.27
2023-01-22T00:39:52.819Z,8.30
2023-01-22T00:42:56.403Z,9.18
2023-01-22T00:45:58.705Z,9.57
2023-01-22T00:49:03.759Z,7.82
2023-01-22T00:52:06.026Z,8.90
2023-01-22T00:55:08.813Z,8.77
2023-01-22T00:58:11.099Z,9.10
2023-01-22T01:01:15.648Z,9.65
2023-01-22T01:04:18.060Z,9.45
2023-01-22T01:07:20.213Z,9.38
2023-01-22T01:10:22.508Z,9.32
2023-01-22T01:13:25.644Z,9.38
2023-01-22T01:16:30.624Z,9.65
2023-01-22T01:19:33.192Z,8.85
2023-01-22T01:22:35.681Z,9.20
2023-01-22T01:25:41.831Z,9.82
2023-01-22T01:28:45.627Z,8.80
2023-01-22T01:31:51.845Z,7.72
2023-01-22T01:34:54.164Z,9.02
2023-01-22T01:37:56.569Z,8.50
2023-01-22T01:40:59.201Z,8.57
2023-01-22T01:44:14.849Z,7.80
2023-01-22T01:47:32.224Z,7.43
2023-01-22T01:50:35.257Z,8.27
2023-01-22T01:53:38.523Z,8.50
2023-01-22T01:56:47.137Z,9.05
2023-01-22T01:59:51.832Z,8.43
2023-01-22T02:02:54.411Z,7.55
2023-01-22T02:05:57.243Z,9.43
2023-01-22T02:09:00.653Z,8.60
2023-01-22T02:12:03.610Z,7.90
2023-01-22T02:15:06.663Z,7.80
2023-01-22T02:18:08.869Z,8.77
2023-01-22T02:21:46.518Z,8.40
2023-01-22T02:24:49.991Z,7.97
2023-01-22T02:27:53.556Z,8.40
2023-01-22T02:30:57.532Z,9.00
2023-01-22T02:34:02.077Z,8.77
2023-01-22T02:37:06.310Z,8.27
2023-01-22T02:40:09.215Z,9.00
2023-01-22T02:43:11.533Z,8.88
2023-01-22T02:46:13.970Z,8.00
2023-01-22T02:49:16.267Z,8.35
2023-01-22T02:52:18.432Z,8.85
2023-01-22T02:55:21.917Z,8.18
2023-01-22T02:58:25.763Z,7.75
2023-01-22T03:01:28.394Z,7.95
2023-01-22T03:04:30.683Z,7.72
2023-01-22T03:07:42.488Z,8.27
2023-01-22T03:10:45.844Z,7.63
2023-01-22T03:14:06.965Z,8.05
2023-01-22T03:17:28.162Z,7.53
2023-01-22T03:20:49.294Z,7.45
2023-01-22T03:23:54.139Z,7.22
2023-01-22T03:26:56.383Z,7.80
2023-01-22T03:29:59.590Z,8.63
2023-01-22T03:33:02.194Z,7.85
2023-01-22T03:36:07.786Z,6.57
2023-01-22T03:39:12.289Z,6.78
2023-01-22T03:42:15.657Z,8.45
2023-01-22T03:45:17.888Z,7.55
2023-01-22T03:48:20.137Z,8.13
2023-01-22T03:51:23.652Z,8.63
2023-01-22T03:54:26.084Z,7.35
2023-01-22T03:57:31.391Z,7.50
2023-01-22T04:00:33.706Z,8.68
2023-01-22T04:03:38.994Z,7.68
2023-01-22T04:06:41.460Z,7.68
2023-01-22T04:09:43.714Z,6.85
2023-01-22T04:12:45.935Z,7.47
2023-01-22T04:15:51.173Z,8.10
2023-01-22T04:19:25.666Z,7.78
2023-01-22T04:22:47.735Z,7.22
2023-01-22T04:25:51.223Z,7.68
2023-01-22T04:28:54.098Z,8.20
2023-01-22T04:31:58.338Z,8.02
2023-01-22T04:35:19.902Z,7.35
2023-01-22T04:38:26.071Z,7.35
2023-01-22T04:41:28.286Z,7.40
2023-01-22T04:44:30.569Z,6.97
2023-01-22T04:47:32.795Z,7.43
2023-01-22T04:50:35.619Z,7.13
2023-01-22T04:53:38.199Z,7.05
2023-01-22T04:56:42.204Z,7.60
2023-01-22T04:59:45.625Z,7.38
2023-01-22T05:02:47.794Z,7.45
2023-01-22T05:05:50.669Z,7.10
2023-01-22T05:08:53.746Z,6.90
2023-01-22T05:11:56.203Z,7.20
2023-01-22T05:14:59.461Z,6.82
2023-01-22T05:18:01.885Z,7.63
2023-01-22T05:21:04.407Z,6.63
2023-01-22T05:24:09.670Z,7.40
2023-01-22T05:27:13.680Z,7.18
2023-01-22T05:30:26.510Z,7.45
2023-01-22T05:33:47.105Z,6.90
2023-01-22T05:36:53.123Z,7.20
2023-01-22T05:39:57.336Z,7.57
2023-01-22T05:43:02.256Z,7.32
2023-01-22T05:46:05.109Z,7.95
2023-01-22T05:49:25.937Z,6.45
2023-01-22T05:52:31.418Z,7.30
2023-01-22T05:55:37.147Z,6.90
2023-01-22T05:58:40.534Z,7.22
2023-01-22T06:01:42.997Z,7.55
2023-01-22T06:04:45.534Z,7.45
2023-01-22T06:07:55.655Z,7.50
2023-01-22T06:11:06.000Z,7.72
2023-01-22T06:14:08.713Z,6.97
2023-01-22T06:17:11.078Z,7.70
2023-01-22T06:20:15.372Z,7.45
2023-01-22T06:23:17.840Z,7.60
2023-01-22T06:26:20.864Z,7.35
2023-01-22T06:29:23.205Z,7.57
2023-01-22T06:32:26.021Z,7.82
2023-01-22T06:35:28.365Z,7.78
2023-01-22T06:38:31.779Z,6.80
2023-01-22T06:41:36.759Z,7.43
2023-01-22T06:44:41.228Z,7.95
2023-01-22T06:47:44.824Z,7.63
2023-01-22T06:50:48.225Z,8.35
2023-01-22T06:53:50.454Z,6.25
2023-01-22T06:56:55.516Z,7.10
2023-01-22T06:59:59.468Z,7.75
2023-01-22T07:03:06.156Z,7.57
2023-01-22T07:06:10.053Z,7.10
2023-01-22T07:09:12.291Z,8.48
2023-01-22T07:12:14.571Z,6.93
2023-01-22T07:15:16.859Z,7.97
2023-01-22T07:18:21.150Z,7.70
2023-01-22T07:21:23.391Z,7.80
2023-01-22T07:24:25.647Z,7.07
2023-01-22T07:27:27.797Z,7.43
2023-01-22T07:30:30.393Z,7.47
2023-01-22T07:33:32.776Z,8.07
2023-01-22T07:36:35.036Z,7.68
2023-01-22T07:39:37.254Z,7.93
2023-01-22T07:42:39.460Z,8.35
2023-01-22T07:45:41.817Z,7.03
2023-01-22T07:48:45.819Z,7.97
2023-01-22T07:51:48.128Z,8.02
2023-01-22T07:54:50.309Z,7.93
2023-01-22T07:58:06.417Z,8.13
2023-01-22T08:01:10.251Z,6.72
2023-01-22T08:04:12.423Z,8.23
2023-01-22T08:07:18.237Z,7.47
2023-01-22T08:10:20.880Z,8.15
2023-01-22T08:13:23.309Z,7.28
2023-01-22T08:16:25.662Z,7.15
2023-01-22T08:19:29.585Z,7.93
2023-01-22T08:22:32.312Z,9.10
2023-01-22T08:25:35.005Z,7.38
2023-01-22T08:28:37.376Z,7.47
2023-01-22T08:31:39.676Z,7.57
2023-01-22T08:34:41.962Z,8.10
2023-01-22T08:37:44.232Z,6.68
2023-01-22T08:40:53.331Z,7.47
2023-01-22T08:43:55.585Z,7.65
2023-01-22T08:46:57.748Z,7.82
2023-01-22T08:50:02.836Z,7.70
2023-01-22T08:53:05.066Z,7.68
2023-01-22T08:56:07.653Z,7.15
2023-01-22T08:59:09.977Z,7.65
2023-01-22T09:02:13.623Z,6.95
2023-01-22T09:05:16.240Z,7.53
2023-01-22T09:08:18.551Z,7.18
2023-01-22T09:11:20.845Z,6.28
2023-01-22T09:14:22.966Z,6.72
2023-01-22T09:17:25.310Z,6.32
2023-01-22T09:20:27.575Z,6.10
2023-01-22T09:23:30.013Z,6.18
2023-01-22T09:26:34.941Z,6.75
2023-01-22T09:29:37.174Z,6.10
2023-01-22T09:32:39.367Z,5.82
2023-01-22T09:35:41.602Z,6.03
2023-01-22T09:38:44.563Z,5.90
2023-01-22T09:41:56.915Z,5.43
2023-01-22T09:45:05.573Z,5.55
2023-01-22T09:48:14.438Z,6.03
2023-01-22T09:51:17.153Z,5.20
2023-01-22T09:54:19.529Z,4.80
2023-01-22T09:57:31.145Z,5.18
2023-01-22T10:00:41.145Z,5.03
2023-01-22T10:04:05.339Z,5.20
2023-01-22T10:07:13.842Z,5.20
2023-01-22T10:10:20.285Z,3.80
2023-01-22T10:13:25.055Z,2.65
2023-01-22T10:16:27.715Z,2.75
2023-01-22T10:19:42.634Z,2.20
2023-01-22T10:22:44.938Z,1.80
2023-01-22T10:25:47.997Z,1.75
2023-01-22T10:28:55.148Z,2.30
2023-01-22T10:31:59.867Z,2.35
2023-01-22T10:35:07.572Z,1.85
2023-01-22T10:38:22.808Z,9.45
2023-01-22T10:41:25.037Z,6.60
2023-01-22T10:44:27.859Z,3.53
2023-01-22T10:47:30.285Z,3.38
2023-01-22T10:50:32.576Z,3.10
2023-01-22T10:53:44.816Z,2.38
2023-01-22T10:56:47.482Z,2.25
2023-01-22T10:59:55.482Z,2.00
2023-01-22T11:02:58.748Z,1.90
2023-01-22T11:06:14.996Z,2.03
2023-01-22T11:09:26.434Z,2.13
2023-01-22T11:12:55.185Z,2.30
2023-01-22T11:16:11.129Z,2.03
2023-01-22T11:19:21.653Z,1.75
2023-01-22T11:22:37.428Z,1.70
2023-01-22T11:25:57.116Z,2.00
2023-01-22T11:29:11.203Z,2.08
2023-01-22T11:32:41.121Z,2.15
2023-01-22T11:36:09.687Z,1.92
2023-01-22T11:39:15.037Z,1.70
2023-01-22T11:42:26.016Z,1.98
2023-01-22T11:45:31.232Z,2.30
2023-01-22T11:49:02.802Z,2.00
2023-01-22T11:52:32.922Z,1.98
2023-01-22T11:55:49.784Z,2.03
2023-01-22T11:59:00.966Z,1.98
2023-01-22T12:02:28.440Z,2.17
2023-01-22T12:05:55.441Z,2.42
2023-01-22T12:09:19.171Z,1.85
2023-01-22T12:12:24.056Z,2.30
2023-01-22T12:15:33.811Z,2.10
2023-01-22T12:18:58.678Z,2.17
2023-01-22T12:22:25.115Z,1.52
2023-01-22T12:25:38.495Z,2.28
2023-01-22T12:28:40.602Z,2.38
2023-01-22T12:31:53.314Z,2.20
2023-01-22T12:35:06.534Z,2.13
2023-01-22T12:38:12.566Z,2.15
2023-01-22T12:41:35.838Z,2.33
2023-01-22T12:45:14.204Z,2.08
2023-01-22T12:48:44.094Z,2.13
2023-01-22T12:51:51.168Z,2.03
2023-01-22T12:54:56.746Z,2.30
2023-01-22T12:57:59.353Z,2.00
2023-01-22T13:01:04.523Z,1.70
2023-01-22T13:04:11.940Z,1.30
2023-01-22T13:07:29.134Z,1.20
2023-01-22T13:10:36.661Z,1.23
2023-01-22T13:13:49.384Z,1.40
2023-01-22T13:17:00.769Z,1.42
2023-01-22T13:20:03.688Z,1.45
2023-01-22T13:23:07.556Z,1.40
2023-01-22T13:26:37.863Z,1.60
2023-01-22T13:32:44.685Z,1.35
2023-01-22T13:35:47.151Z,1.60
2023-01-22T13:38:58.126Z,1.70
2023-01-22T13:42:03.038Z,2.05
2023-01-22T13:45:05.764Z,1.80
2023-01-22T13:48:17.320Z,2.00
2023-01-22T13:51:21.877Z,1.80
2023-01-22T13:54:35.711Z,2.08
2023-01-22T13:57:45.157Z,1.98
2023-01-22T14:00:52.912Z,1.87
2023-01-22T14:04:07.278Z,2.03
2023-01-22T14:07:09.976Z,1.70
2023-01-22T14:10:20.215Z,1.90
2023-01-22T14:13:22.662Z,1.67
2023-01-22T14:16:25.600Z,1.88
2023-01-22T14:19:29.171Z,1.58
2023-01-22T14:22:32.259Z,2.00
2023-01-22T14:25:39.378Z,1.85
2023-01-22T14:28:41.469Z,2.42
2023-01-22T14:31:43.651Z,2.47
2023-01-22T14:34:45.888Z,2.55
2023-01-22T14:37:48.464Z,2.05
2023-01-22T14:40:51.437Z,2.20
2023-01-22T14:43:53.670Z,1.80
2023-01-22T14:46:55.880Z,1.70
2023-01-22T14:49:58.056Z,1.55
2023-01-22T14:53:00.380Z,1.60
2023-01-22T14:56:02.738Z,2.00
2023-01-22T14:59:05.019Z,1.60
2023-01-22T15:02:07.197Z,2.15
2023-01-22T15:05:10.815Z,3.40
2023-01-22T15:08:13.027Z,3.95
2023-01-22T15:11:15.364Z,3.50
2023-01-22T15:14:17.509Z,2.40
2023-01-22T15:17:19.643Z,2.50
2023-01-22T15:20:22.508Z,1.98
2023-01-22T15:23:24.699Z,2.20
2023-01-22T15:26:36.641Z,2.10
2023-01-22T15:29:38.831Z,2.95
2023-01-22T15:32:41.107Z,2.97
2023-01-22T15:35:43.429Z,3.03
2023-01-22T15:38:45.738Z,2.13
2023-01-22T15:41:47.995Z,3.20
2023-01-22T15:44:50.467Z,8.73
2023-01-22T15:47:53.709Z,8.52
2023-01-22T15:51:06.975Z,6.78
2023-01-22T15:54:13.261Z,5.88
2023-01-22T15:57:15.381Z,4.70
2023-01-22T16:00:18.320Z,4.32
2023-01-22T16:03:20.662Z,3.20
2023-01-22T16:06:25.801Z,3.58
2023-01-22T16:09:27.920Z,3.05
2023-01-22T16:12:31.273Z,3.58
2023-01-22T16:15:33.974Z,3.72
2023-01-22T16:18:36.165Z,3.80
2023-01-22T16:21:38.341Z,3.70
2023-01-22T16:24:40.609Z,3.20
2023-01-22T16:27:42.834Z,2.90
2023-01-22T16:30:45.073Z,2.70
2023-01-22T16:33:49.794Z,2.55
2023-01-22T16:36:52.024Z,2.50
2023-01-22T16:39:54.248Z,3.03
2023-01-22T16:43:00.695Z,3.25
2023-01-22T16:46:03.460Z,2.78
2023-01-22T16:49:17.879Z,4.00
2023-01-22T16:52:22.949Z,3.30
2023-01-22T16:55:25.495Z,3.75
2023-01-22T16:58:27.664Z,3.42
2023-01-22T17:01:30.725Z,2.67
2023-01-22T17:04:32.950Z,3.03
2023-01-22T17:07:35.172Z,2.70
2023-01-22T17:10:37.426Z,3.65
2023-01-22T17:13:39.611Z,3.58
2023-01-22T17:16:41.771Z,3.60
2023-01-22T17:19:44.035Z,3.90
2023-01-22T17:22:46.228Z,3.80
2023-01-22T17:25:51.954Z,3.20
2023-01-22T17:28:55.356Z,3.78
2023-01-22T17:31:57.736Z,3.63
2023-01-22T17:34:59.834Z,3.53
2023-01-22T17:38:02.039Z,3.10
2023-01-22T17:41:16.175Z,3.35
2023-01-22T17:44:18.375Z,2.70
2023-01-22T17:47:20.539Z,3.13
2023-01-22T17:50:22.873Z,3.25
2023-01-22T17:53:25.155Z,3.25
2023-01-22T17:56:36.600Z,3.20
2023-01-22T17:59:38.811Z,2.95
2023-01-22T18:02:41.042Z,3.75
2023-01-22T18:05:43.174Z,3.42
2023-01-22T18:08:45.391Z,3.90
2023-01-22T18:11:47.691Z,3.97
2023-01-22T18:14:52.338Z,4.03
2023-01-22T18:17:54.504Z,3.42
2023-01-22T18:20:57.052Z,3.47
2023-01-22T18:24:01.214Z,3.40
2023-01-22T18:27:03.448Z,3.35
2023-01-22T18:30:06.420Z,3.40
2023-01-22T18:33:10.251Z,2.70
2023-01-22T18:36:14.626Z,3.40
2023-01-22T18:39:18.513Z,3.28
2023-01-22T18:42:20.732Z,2.92
2023-01-22T18:45:23.094Z,3.03
2023-01-22T18:48:25.293Z,2.97
2023-01-22T18:51:28.503Z,3.45
2023-01-22T18:54:30.798Z,2.65
2023-01-22T18:58:33.998Z,2.95
2023-01-22T19:01:38.448Z,2.85
2023-01-22T19:04:40.648Z,2.92
2023-01-22T19:07:42.725Z,3.03
2023-01-22T19:10:45.406Z,3.60
2023-01-22T19:13:48.956Z,3.10
2023-01-22T19:16:53.413Z,3.30
2023-01-22T19:19:55.683Z,3.50
2023-01-22T19:23:00.189Z,2.90
2023-01-22T19:26:23.181Z,3.40
2023-01-22T19:29:26.485Z,3.25
2023-01-22T19:32:30.409Z,3.67
2023-01-22T19:35:32.702Z,3.10
2023-01-22T19:38:34.847Z,3.63
2023-01-22T19:41:38.127Z,3.05
2023-01-22T19:44:41.779Z,3.55
2023-01-22T19:47:43.925Z,3.55
2023-01-22T19:50:46.101Z,3.45
2023-01-22T19:53:48.937Z,3.60
2023-01-22T19:56:52.179Z,4.00
2023-01-22T19:59:57.367Z,3.42
2023-01-22T20:03:01.403Z,3.70
2023-01-22T20:06:08.472Z,3.60
2023-01-22T20:09:11.476Z,4.00
2023-01-22T20:12:13.694Z,3.85
2023-01-22T20:15:16.613Z,3.40
2023-01-22T20:18:19.077Z,4.22
2023-01-22T20:21:22.472Z,4.60
2023-01-22T20:24:24.656Z,4.40
2023-01-22T20:27:26.810Z,3.65
2023-01-22T20:30:29.149Z,4.90
2023-01-22T20:33:32.438Z,4.47
2023-01-22T20:36:34.627Z,5.03
2023-01-22T20:39:37.177Z,4.75
2023-01-22T20:42:39.708Z,5.50
2023-01-22T20:45:42.052Z,5.20
2023-01-22T20:48:45.112Z,4.40
2023-01-22T20:51:47.273Z,5.32
2023-01-22T20:55:00.963Z,5.20
2023-01-22T20:58:03.859Z,4.85
2023-01-22T21:01:08.217Z,4.93
2023-01-22T21:04:12.312Z,5.40
2023-01-22T21:07:14.705Z,4.95
2023-01-22T21:10:17.360Z,4.80
2023-01-22T21:13:21.142Z,5.45
2023-01-22T21:16:31.392Z,5.22
2023-01-22T21:22:36.196Z,4.65
2023-01-22T21:25:38.518Z,5.32
2023-01-22T21:28:40.863Z,5.20
2023-01-22T21:31:43.766Z,5.57
2023-01-22T21:34:46.118Z,6.10
2023-01-22T21:37:48.638Z,6.00
2023-01-22T21:40:51.026Z,5.70
2023-01-22T21:44:11.873Z,5.95
2023-01-22T21:47:14.044Z,5.63
2023-01-22T21:50:16.657Z,5.10
2023-01-22T21:53:19.123Z,5.13
2023-01-22T21:56:21.513Z,5.50
2023-01-22T21:59:23.775Z,6.05
2023-01-22T22:02:26.244Z,6.13
2023-01-22T22:05:30.642Z,5.70
2023-01-22T22:08:34.498Z,6.13
2023-01-22T22:11:36.795Z,6.25
2023-01-22T22:14:38.942Z,5.88
2023-01-22T22:17:41.173Z,5.93
2023-01-22T22:20:43.314Z,5.95
2023-01-22T22:23:45.538Z,6.00
2023-01-22T22:26:47.859Z,5.82
2023-01-22T22:29:53.131Z,5.32
2023-01-22T22:32:55.467Z,5.35
2023-01-22T22:35:57.626Z,6.80
2023-01-22T22:39:01.214Z,5.43
2023-01-22T22:42:03.335Z,6.25
2023-01-22T22:45:05.934Z,5.35
2023-01-22T22:48:08.027Z,6.00
2023-01-22T22:51:16.084Z,6.18
2023-01-22T22:54:19.994Z,6.70
2023-01-22T22:57:22.116Z,5.70
2023-01-22T23:00:24.666Z,6.28
2023-01-22T23:03:26.876Z,5.55
2023-01-22T23:06:31.699Z,6.15
2023-01-22T23:09:45.893Z,5.80
2023-01-22T23:12:48.006Z,6.45
2023-01-22T23:15:50.127Z,6.25
2023-01-22T23:18:52.293Z,7.13
2023-01-22T23:21:59.030Z,6.28
2023-01-22T23:25:01.163Z,6.10
2023-01-22T23:28:03.462Z,6.35
2023-01-22T23:31:11.196Z,6.10
2023-01-22T23:34:16.926Z,7.18
2023-01-22T23:37:19.257Z,6.30
2023-01-22T23:40:21.723Z,7.57
2023-01-22T23:43:24.636Z,7.95
2023-01-22T23:46:28.931Z,6.32
2023-01-22T23:49:31.443Z,7.40
2023-01-22T23:52:33.569Z,7.38
2023-01-22T23:55:35.850Z,7.68
2023-01-22T23:58:38.867Z,7.03
